Pendroy, MT (59467)

2:53 AM MST on February 11, 2016 (GMT -0700)
MesoWest | | Change Station
CLOSE
Current Station
Personal Weather Station
Location: Pendroy, MT
Elevation: 4084 ft
Nearby Weather Stations

Elev 4084 ft 48.04 °N, 112.20 °W | Updated 1 hour ago

Partly Cloudy
Partly Cloudy
47 °F
Feels Like 43 °F
N
8
Wind Variable Wind from NW
Gusts 15.0 mph

Today
High -- | Low -- °F
--% Chance of Precip.
Yesterday
High -- | Low -- °F
Precip. -- in
Pressure 30.04 in
Visibility 10.0 miles
Clouds Clear
Windchill 43 °F
Dew Point 30 °F
Humidity 52%
Rainfall in
Snow Depth Not available.
7:42 AM 5:44 PM
Waxing Crescent, 11% visible
METAR KCTB 110856Z AUTO 26017KT 10SM CLR 05/M02 A3002 RMK AO2 SLP170 T00501022 50007 TSNO
Pressure 30.04 in
Visibility 10.0 miles
Clouds Clear
Windchill 43 °F
Dew Point 30 °F
Humidity 52%
Rainfall in
Snow Depth Not available.
7:42 AM 5:44 PM
Waxing Crescent, 11% visible
METAR KCTB 110856Z AUTO 26017KT 10SM CLR 05/M02 A3002 RMK AO2 SLP170 T00501022 50007 TSNO

10-Day Weather Forecast

Almanac

Astronomy

Feb. 11, 2016 Rise Set
Actual Time
Civil Twilight
Nautical Twilight
Astronomical Twilight
Moon
Length of Visible Light
Length of Day
Tomorrow will be .
, % of the Moon is Illuminated

Today's Extremes

State Highs State Lows

Community

WunderPhotos

Upload Photos

1,892,030 photos uploaded!

WunderBlog® & News

Nearby

Air Quality

  Air Quality AQ Index Pollutant
Not available.

Snow Depth

Station Depth Elevation

Earthquake Activity

City Distance Mag. Time & Date
Minimum magnitude displayed is 2.5.

Coastal Water Temperatures

Place Temperature

Stations

Nearby Weather Stations

Station Location Temp. Windchill Dew Point Humidity Wind Precip. Elev Updated Type
                   

Watches & Warnings

There are currently no watches in effect.